This is the latest recevied weather packets stored in our database for station/object HB9BTL-13. If no packets are shown the sender has not sent any weather packets the latest 10 day(s).
| Time | Temp. | Humidity | Pressure | Rain* | Wind** | Luminosity | Snow |
|---|---|---|---|---|---|---|---|
| 1777520994 | 10.56° C | 44% | 1022 hPa | - | - | - | - |
| 1777520090 | 11.11° C | 42% | 1022.1 hPa | - | - | - | - |
| 1777519184 | 11.67° C | 42% | 1022 hPa | - | - | - | - |
| 1777518279 | 12.22° C | 41% | 1021.9 hPa | - | - | - | - |
| 1777517373 | 12.22° C | 41% | 1021.7 hPa | - | - | - | - |
| 1777516468 | 12.22° C | 41% | 1021.7 hPa | - | - | - | - |
| 1777515563 | 12.78° C | 39% | 1021.5 hPa | - | - | - | - |
| 1777514657 | 12.78° C | 40% | 1021.6 hPa | - | - | - | - |
| 1777513752 | 12.78° C | 40% | 1021.6 hPa | - | - | - | - |
| 1777512846 | 12.22° C | 42% | 1021.4 hPa | - | - | - | - |
| 1777511941 | 12.78° C | 41% | 1021.4 hPa | - | - | - | - |
| 1777511035 | 12.78° C | 41% | 1021.3 hPa | - | - | - | - |
| 1777510130 | 13.33° C | 41% | 1021 hPa | - | - | - | - |
| 1777501077 | 15.56° C | 35% | 1020.5 hPa | - | - | - | - |
| 1777500171 | 15.56° C | 36% | 1020.4 hPa | - | - | - | - |
| 1777499266 | 15.56° C | 38% | 1020.4 hPa | - | - | - | - |
| 1777498360 | 15.56° C | 39% | 1020.5 hPa | - | - | - | - |
| 1777497455 | 15.56° C | 39% | 1020.4 hPa | - | - | - | - |
| 1777496549 | 16.11° C | 41% | 1020.3 hPa | - | - | - | - |
| 1777495644 | 16.11° C | 40% | 1020.3 hPa | - | - | - | - |
| 1777494739 | 16.11° C | 40% | 1020.1 hPa | - | - | - | - |
| 1777493833 | 16.11° C | 42% | 1020.1 hPa | - | - | - | - |
| 1777492928 | 16.67° C | 41% | 1019.9 hPa | - | - | - | - |
| 1777491117 | 17.78° C | 34% | 1019.6 hPa | - | - | - | - |
| 1777490212 | 17.78° C | 34% | 1019.5 hPa | - | - | - | - |
* Rain since midnight (hover to see other rain measurements)
** Current wind speed in m/s (hover to see current wind gust speed)